createdAt,value
2018-06-22T00:58:22.299Z,95.66
2018-06-22T01:54:46.279Z,95.37
2018-06-22T01:57:16.729Z,95.61
2018-06-22T01:59:48.298Z,96.23
2018-06-22T02:02:20.156Z,95.82
2018-06-22T02:04:51.174Z,95.66
2018-06-22T02:07:23.655Z,95.70
2018-06-22T02:09:54.400Z,96.03
2018-06-22T02:12:25.095Z,95.51
2018-06-22T02:14:59.440Z,95.99
2018-06-22T02:17:30.616Z,95.67
2018-06-22T02:20:01.475Z,95.58
2018-06-22T02:22:34.187Z,95.71
2018-06-22T02:25:08.436Z,95.60
2018-06-22T02:27:38.872Z,94.86
2018-06-22T02:30:08.070Z,95.28
2018-06-22T02:32:38.794Z,95.22
2018-06-22T02:35:07.925Z,94.94
2018-06-22T02:37:37.075Z,95.11
2018-06-22T02:40:07.823Z,95.10
2018-06-22T02:42:37.376Z,94.80
2018-06-22T02:45:06.803Z,94.74
2018-06-22T02:47:36.187Z,95.02
2018-06-22T02:50:05.796Z,95.10
2018-06-22T02:52:35.201Z,95.23
2018-06-22T02:55:04.349Z,94.97
2018-06-22T02:57:33.297Z,93.96
2018-06-22T03:00:02.581Z,94.71
2018-06-22T03:02:31.752Z,94.59
2018-06-22T03:05:01.654Z,94.84
2018-06-22T03:07:30.595Z,94.97
2018-06-22T03:09:59.458Z,94.93
2018-06-22T03:12:28.911Z,94.94
2018-06-22T03:14:58.308Z,94.81
2018-06-22T03:17:28.049Z,94.48
2018-06-22T03:19:56.871Z,94.24
2018-06-22T03:22:26.214Z,94.59
2018-06-22T03:24:55.759Z,94.16
2018-06-22T03:27:25.075Z,95.05
2018-06-22T03:29:54.116Z,94.93
2018-06-22T03:32:23.131Z,94.90
2018-06-22T03:34:52.624Z,96.03
2018-06-22T03:37:22.017Z,96.23
2018-06-22T03:39:51.247Z,97.25
2018-06-22T03:42:20.714Z,97.39
2018-06-22T03:44:49.495Z,97.78
2018-06-22T03:47:18.618Z,98.08
2018-06-22T03:49:47.482Z,97.77
2018-06-22T03:52:16.600Z,98.39
2018-06-22T03:54:45.760Z,98.99
2018-06-22T03:57:14.633Z,98.42
2018-06-22T03:59:43.884Z,98.52
2018-06-22T04:02:12.977Z,98.18
2018-06-22T04:04:43.007Z,98.33
2018-06-22T04:07:12.245Z,98.41
2018-06-22T04:09:41.646Z,99.17
2018-06-22T04:12:10.731Z,98.75
2018-06-22T04:14:39.559Z,98.81
2018-06-22T04:17:08.374Z,98.80
2018-06-22T04:19:37.358Z,98.63
2018-06-22T04:22:06.714Z,97.70
2018-06-22T04:24:36.159Z,97.25
2018-06-22T04:27:05.575Z,96.68
2018-06-22T04:29:34.692Z,96.51
2018-06-22T04:32:03.610Z,96.90
2018-06-22T04:34:32.752Z,96.81
2018-06-22T04:37:02.521Z,96.76
2018-06-22T04:39:31.773Z,96.75
2018-06-22T04:42:01.285Z,96.98
2018-06-22T04:44:30.395Z,96.83
2018-06-22T04:46:59.544Z,97.11
2018-06-22T04:49:28.734Z,97.92
2018-06-22T04:51:57.854Z,98.40
2018-06-22T04:54:27.284Z,98.33
2018-06-22T04:56:56.712Z,98.74
2018-06-22T04:59:25.602Z,98.87
2018-06-22T05:01:54.819Z,98.90
2018-06-22T05:04:24.294Z,98.99
2018-06-22T05:06:53.930Z,97.49
2018-06-22T05:09:23.193Z,97.52
2018-06-22T05:11:52.491Z,97.13
2018-06-22T05:14:21.549Z,98.00
2018-06-22T05:16:50.401Z,98.08
2018-06-22T05:19:19.183Z,98.23
2018-06-22T05:21:47.959Z,97.56
2018-06-22T05:24:17.096Z,97.21
2018-06-22T05:26:46.275Z,95.47
2018-06-22T05:29:15.357Z,96.21
2018-06-22T05:31:44.250Z,96.02
2018-06-22T05:34:13.045Z,96.38
2018-06-22T05:36:41.891Z,96.48
2018-06-22T05:39:12.116Z,96.74
2018-06-22T05:41:41.386Z,96.98
2018-06-22T05:44:10.946Z,97.56
2018-06-22T05:46:40.276Z,97.75
2018-06-22T05:49:09.179Z,98.58
2018-06-22T05:51:38.231Z,98.70
2018-06-22T05:54:07.298Z,99.31
2018-06-22T05:56:36.392Z,98.31
2018-06-22T05:59:06.031Z,97.99
2018-06-22T06:01:35.833Z,97.37
2018-06-22T06:04:05.421Z,96.53
2018-06-22T06:06:35.009Z,96.22
2018-06-22T06:09:04.194Z,95.89
2018-06-22T06:11:33.614Z,94.88
2018-06-22T06:14:02.863Z,94.37
2018-06-22T06:16:32.051Z,95.54
2018-06-22T06:19:01.513Z,94.77
2018-06-22T06:21:30.731Z,94.64
2018-06-22T06:24:00.275Z,94.31
2018-06-22T06:26:29.277Z,93.06
2018-06-22T06:28:58.863Z,93.28
2018-06-22T06:31:28.343Z,90.57
2018-06-22T06:33:57.516Z,92.25
2018-06-22T06:36:28.567Z,91.91
2018-06-22T06:38:59.760Z,92.13
2018-06-22T06:41:28.716Z,91.85
2018-06-22T06:43:58.534Z,92.72
2018-06-22T06:46:27.913Z,92.63
2018-06-22T06:48:57.575Z,92.92
2018-06-22T06:51:26.777Z,91.45
2018-06-22T06:53:56.308Z,89.71
2018-06-22T06:56:25.859Z,91.75
2018-06-22T06:58:55.333Z,90.90
2018-06-22T07:01:25.019Z,90.68
2018-06-22T07:03:54.303Z,89.84
2018-06-22T07:06:23.161Z,90.09
2018-06-22T07:08:52.391Z,90.69
2018-06-22T07:11:22.048Z,91.05
2018-06-22T07:13:51.306Z,90.78
2018-06-22T07:16:20.106Z,89.21
2018-06-22T07:18:49.615Z,89.26
2018-06-22T07:21:18.697Z,90.07
2018-06-22T07:23:47.920Z,90.83
2018-06-22T07:26:17.619Z,89.71
2018-06-22T07:28:46.726Z,88.29
2018-06-22T07:31:15.944Z,85.80
2018-06-22T07:33:45.821Z,86.63
2018-06-22T07:36:14.811Z,86.96
2018-06-22T07:38:44.782Z,86.82
2018-06-22T07:41:14.483Z,85.16
2018-06-22T07:43:44.193Z,87.06
2018-06-22T07:46:13.105Z,87.27
2018-06-22T07:48:42.971Z,87.36
2018-06-22T07:51:12.207Z,85.80
2018-06-22T07:53:41.035Z,85.27
2018-06-22T07:56:11.174Z,86.21
2018-06-22T07:58:40.235Z,86.40
2018-06-22T08:01:09.230Z,83.83
2018-06-22T08:03:38.329Z,82.45
2018-06-22T08:06:07.263Z,82.03
2018-06-22T08:08:36.622Z,82.23
2018-06-22T08:11:05.931Z,81.31
2018-06-22T08:13:35.074Z,80.46
2018-06-22T08:16:04.239Z,82.29
2018-06-22T08:18:33.245Z,77.99
2018-06-22T08:21:02.845Z,78.04
2018-06-22T08:23:31.712Z,78.76
2018-06-22T08:26:01.508Z,78.97
2018-06-22T08:28:30.839Z,78.92
2018-06-22T08:30:59.733Z,77.81
2018-06-22T08:33:29.864Z,76.06
2018-06-22T08:35:58.932Z,76.32
2018-06-22T08:38:28.267Z,75.50
2018-06-22T08:40:57.926Z,74.81
2018-06-22T08:43:28.076Z,75.71
2018-06-22T08:46:00.350Z,73.73
2018-06-22T08:48:29.711Z,72.42
2018-06-22T08:51:00.566Z,72.79
2018-06-22T08:53:31.974Z,72.75
2018-06-22T08:56:04.746Z,70.74
2018-06-22T08:58:37.540Z,71.87
2018-06-22T09:01:06.855Z,70.28
2018-06-22T09:03:35.990Z,71.18
2018-06-22T09:06:05.106Z,71.43
2018-06-22T09:08:34.310Z,71.10
2018-06-22T09:11:03.589Z,72.62
2018-06-22T09:13:33.215Z,71.33
2018-06-22T09:16:02.567Z,72.56
2018-06-22T09:18:31.628Z,72.11
2018-06-22T09:21:00.892Z,75.14
2018-06-22T09:23:30.005Z,77.00
2018-06-22T09:26:05.245Z,77.53
2018-06-22T09:28:36.900Z,74.00
2018-06-22T09:31:06.898Z,72.49
2018-06-22T09:33:36.483Z,74.16
2018-06-22T09:36:05.696Z,73.18
2018-06-22T09:38:35.097Z,73.82
2018-06-22T09:41:03.891Z,71.74
2018-06-22T09:43:32.939Z,68.55
2018-06-22T09:46:02.042Z,70.13
2018-06-22T09:48:31.465Z,71.56
2018-06-22T09:51:00.651Z,73.48
2018-06-22T09:53:29.744Z,74.78
2018-06-22T09:56:03.915Z,77.74
2018-06-22T09:58:34.839Z,76.30
2018-06-22T10:01:39.000Z,72.85
2018-06-22T10:04:08.399Z,73.70
2018-06-22T10:06:37.309Z,74.00
2018-06-22T10:09:10.972Z,72.24
2018-06-22T10:11:40.175Z,70.97
2018-06-22T10:14:09.606Z,69.90
2018-06-22T10:16:40.956Z,69.87
2018-06-22T10:21:54.808Z,71.10
2018-06-22T10:24:27.908Z,73.89
2018-06-22T10:27:01.489Z,73.20
2018-06-22T10:29:30.977Z,73.80
2018-06-22T10:32:01.409Z,73.53
2018-06-22T10:34:31.938Z,73.03
2018-06-22T10:37:02.903Z,69.81
2018-06-22T10:39:32.124Z,70.08
2018-06-22T10:42:03.839Z,66.75
2018-06-22T10:44:33.237Z,68.30
2018-06-22T10:47:02.437Z,66.28
2018-06-22T10:49:32.038Z,65.57
2018-06-22T10:52:01.327Z,65.34
2018-06-22T10:54:30.417Z,62.62
2018-06-22T10:56:59.610Z,61.81
2018-06-22T10:59:29.005Z,61.44
2018-06-22T11:01:58.305Z,61.87
2018-06-22T11:04:28.157Z,66.20
2018-06-22T11:06:57.320Z,69.06
2018-06-22T11:09:28.706Z,70.77
2018-06-22T11:12:03.428Z,74.49
2018-06-22T11:14:33.072Z,75.28
2018-06-22T11:17:02.696Z,75.12
2018-06-22T11:19:31.749Z,75.59
2018-06-22T11:22:00.741Z,75.24
2018-06-22T11:24:29.905Z,72.46
2018-06-22T11:26:59.698Z,72.14
2018-06-22T11:29:28.868Z,69.74
2018-06-22T11:31:58.321Z,67.11
2018-06-22T11:34:27.856Z,68.85
2018-06-22T11:36:56.835Z,71.41
2018-06-22T11:39:26.338Z,70.75
2018-06-22T11:41:56.009Z,71.45
2018-06-22T11:44:25.089Z,70.91
2018-06-22T11:46:54.631Z,70.47
2018-06-22T11:49:24.006Z,70.97
2018-06-22T11:51:53.275Z,68.83
2018-06-22T11:54:22.446Z,68.36
2018-06-22T11:56:51.871Z,71.59
2018-06-22T11:59:21.281Z,70.37
2018-06-22T12:01:50.487Z,68.66
2018-06-22T12:04:19.533Z,68.63
2018-06-22T12:06:49.278Z,67.53
2018-06-22T12:09:18.786Z,67.25
2018-06-22T12:11:51.650Z,65.41
2018-06-22T12:14:21.092Z,64.60
2018-06-22T12:16:51.015Z,67.07
2018-06-22T12:19:21.585Z,68.74
2018-06-22T12:21:56.104Z,70.67
2018-06-22T12:24:26.498Z,70.73
2018-06-22T12:26:56.993Z,71.97
2018-06-22T12:29:26.323Z,69.18
2018-06-22T12:31:55.533Z,67.67
2018-06-22T12:34:25.035Z,68.34
2018-06-22T12:36:54.344Z,67.81
2018-06-22T12:39:23.190Z,70.84
2018-06-22T12:41:52.328Z,72.71
2018-06-22T12:44:23.243Z,74.06
2018-06-22T12:46:55.173Z,75.05
2018-06-22T12:49:30.435Z,75.10
2018-06-22T12:51:59.498Z,76.33
2018-06-22T12:54:28.426Z,74.15
2018-06-22T12:56:57.240Z,74.64
2018-06-22T12:59:26.102Z,72.71
2018-06-22T13:01:55.063Z,72.18
2018-06-22T13:04:38.657Z,75.41
2018-06-22T13:07:07.829Z,75.82
2018-06-22T13:10:16.819Z,77.04
2018-06-22T13:43:24.892Z,74.97
2018-06-22T13:46:08.617Z,74.15
2018-06-22T13:48:52.795Z,75.55
2018-06-22T13:51:41.421Z,76.54
2018-06-22T13:54:30.708Z,76.73
2018-06-22T13:57:09.589Z,77.00
2018-06-22T14:02:30.911Z,78.41
2018-06-22T14:05:07.225Z,78.64
2018-06-22T14:07:42.695Z,78.27
2018-06-22T14:10:32.912Z,76.77
2018-06-22T14:13:05.452Z,77.11
2018-06-22T14:15:34.920Z,76.77
2018-06-22T14:18:04.075Z,74.54
2018-06-22T14:20:33.518Z,74.88
2018-06-22T14:23:02.713Z,70.60
2018-06-22T14:25:31.860Z,69.02
2018-06-22T14:28:00.939Z,67.74
2018-06-22T14:30:30.551Z,67.26
2018-06-22T14:32:59.645Z,63.44
2018-06-22T14:35:29.128Z,63.47
2018-06-22T14:37:58.491Z,65.79
2018-06-22T14:40:27.548Z,65.50
2018-06-22T14:42:56.510Z,65.22
2018-06-22T14:45:26.196Z,65.10
2018-06-22T14:47:55.281Z,63.55
2018-06-22T14:50:24.982Z,62.82
2018-06-22T14:52:55.022Z,62.69
2018-06-22T14:55:29.437Z,63.03
2018-06-22T14:58:03.717Z,63.90
2018-06-22T15:00:38.638Z,61.77
2018-06-22T15:03:13.201Z,61.36
2018-06-22T15:05:47.347Z,59.23
2018-06-22T15:08:20.695Z,60.74
2018-06-22T15:10:49.709Z,59.95
2018-06-22T15:13:18.907Z,61.93
2018-06-22T15:15:48.244Z,59.13
2018-06-22T15:18:17.185Z,59.48
2018-06-22T15:20:46.162Z,60.40
2018-06-22T15:23:16.044Z,61.23
2018-06-22T15:25:45.369Z,62.22
2018-06-22T15:28:14.420Z,62.55
2018-06-22T15:30:43.384Z,61.88
2018-06-22T15:33:17.641Z,62.52
2018-06-22T15:35:51.658Z,62.05
2018-06-22T15:38:26.491Z,60.44
2018-06-22T15:41:01.237Z,61.39
2018-06-22T15:43:35.457Z,61.70
2018-06-22T15:46:09.958Z,63.08
2018-06-22T15:48:49.708Z,61.52
2018-06-22T15:51:23.859Z,63.02
2018-06-22T15:53:57.954Z,63.55
2018-06-22T15:56:27.517Z,63.08
2018-06-22T15:58:56.555Z,63.28
2018-06-22T16:01:25.609Z,62.61
2018-06-22T16:03:56.712Z,62.90
2018-06-22T16:06:26.464Z,62.72
2018-06-22T16:08:55.938Z,61.98
2018-06-22T16:11:28.995Z,60.31
2018-06-22T16:14:03.679Z,59.97
2018-06-22T16:16:37.518Z,60.83
2018-06-22T16:19:11.573Z,61.16
2018-06-22T16:21:45.535Z,61.80
2018-06-22T16:24:19.716Z,61.96
2018-06-22T16:26:54.027Z,62.25
2018-06-22T16:29:23.418Z,62.45
2018-06-22T16:31:52.216Z,62.30
2018-06-22T16:34:21.353Z,63.00
2018-06-22T16:36:50.781Z,61.37
2018-06-22T16:39:19.902Z,60.74
2018-06-22T16:41:49.313Z,60.51
2018-06-22T16:44:18.707Z,61.28
2018-06-22T16:46:48.052Z,60.70
2018-06-22T16:49:17.424Z,61.59
2018-06-22T16:51:46.473Z,61.70
2018-06-22T16:54:15.532Z,62.65
2018-06-22T16:56:44.405Z,63.57
2018-06-22T16:59:13.601Z,63.53
2018-06-22T17:01:42.668Z,63.41
2018-06-22T17:04:15.402Z,63.90
2018-06-22T17:06:50.269Z,63.63
2018-06-22T17:09:24.817Z,64.58
2018-06-22T17:11:59.015Z,64.80
2018-06-22T17:14:32.984Z,64.81
2018-06-22T17:17:06.812Z,65.87
2018-06-22T17:19:35.736Z,64.64
2018-06-22T17:22:05.311Z,64.38
2018-06-22T17:24:34.177Z,65.31
2018-06-22T17:27:03.368Z,65.35
2018-06-22T17:29:33.031Z,66.07
2018-06-22T17:32:02.112Z,65.19
2018-06-22T17:34:31.287Z,65.06
2018-06-22T17:37:00.120Z,65.91
2018-06-22T17:39:29.788Z,65.87
2018-06-22T17:41:58.963Z,67.22
2018-06-22T17:44:28.126Z,66.90
2018-06-22T17:46:57.244Z,67.12
2018-06-22T17:49:26.408Z,65.84
2018-06-22T17:51:55.998Z,65.96
2018-06-22T17:54:25.426Z,65.79
2018-06-22T17:56:54.300Z,65.24
2018-06-22T17:59:28.516Z,64.04
2018-06-22T18:02:02.861Z,63.92
2018-06-22T18:04:38.082Z,63.90
2018-06-22T18:07:12.008Z,65.12
2018-06-22T18:09:46.269Z,65.59
2018-06-22T18:12:20.506Z,66.82
2018-06-22T18:14:49.824Z,67.42
2018-06-22T18:17:18.914Z,67.27
2018-06-22T18:19:48.032Z,67.58
2018-06-22T18:22:16.979Z,67.61
2018-06-22T18:24:45.811Z,68.05
2018-06-22T18:27:15.320Z,67.84
2018-06-22T18:29:44.350Z,68.34
2018-06-22T18:32:13.509Z,68.66
2018-06-22T18:34:42.312Z,68.47
2018-06-22T18:37:11.705Z,69.18
2018-06-22T18:39:40.455Z,69.48
2018-06-22T18:42:09.289Z,70.07
2018-06-22T18:44:38.135Z,69.75
2018-06-22T18:47:07.116Z,69.74
2018-06-22T18:49:35.928Z,70.82
2018-06-22T18:52:10.029Z,71.03
2018-06-22T18:54:44.330Z,71.61
2018-06-22T18:57:18.463Z,71.30
2018-06-22T18:59:52.361Z,71.74
2018-06-22T19:02:26.367Z,72.15
2018-06-22T19:04:55.206Z,72.15
2018-06-22T19:07:24.247Z,72.59
2018-06-22T19:09:53.528Z,72.26
2018-06-22T19:12:23.223Z,72.95
2018-06-22T19:14:52.112Z,73.17
2018-06-22T19:17:21.279Z,73.57
2018-06-22T19:19:50.094Z,73.91
2018-06-22T19:22:19.495Z,73.87
2018-06-22T19:24:48.615Z,74.30
2018-06-22T19:27:17.658Z,74.46
2018-06-22T19:29:47.275Z,74.90
2018-06-22T19:32:16.378Z,74.80
2018-06-22T19:35:16.114Z,74.33
2018-06-22T19:37:45.457Z,74.33
2018-06-22T19:40:14.448Z,74.63
2018-06-22T19:42:43.510Z,74.71
2018-06-22T19:45:17.345Z,74.87
2018-06-22T19:47:52.023Z,74.86
2018-06-22T19:50:25.881Z,75.14
2018-06-22T19:53:00.143Z,75.44
2018-06-22T19:55:29.289Z,74.97
2018-06-22T19:57:58.072Z,74.54
2018-06-22T20:00:26.916Z,74.64
2018-06-22T20:02:56.195Z,74.40
2018-06-22T20:05:25.731Z,74.79
2018-06-22T20:07:54.557Z,73.81
2018-06-22T20:10:23.429Z,73.56
2018-06-22T20:12:52.602Z,73.77
2018-06-22T20:15:25.267Z,73.76
2018-06-22T20:17:55.173Z,73.86
2018-06-22T20:20:24.015Z,74.13
2018-06-22T20:22:52.888Z,74.09
2018-06-22T20:25:26.717Z,74.14
2018-06-22T20:27:56.136Z,74.25
2018-06-22T20:30:25.281Z,73.84
2018-06-22T20:32:54.427Z,75.06
2018-06-22T20:35:28.492Z,75.28
2018-06-22T20:38:02.707Z,75.76
2018-06-22T20:40:36.623Z,76.21
2018-06-22T20:43:10.371Z,76.16
2018-06-22T20:45:43.651Z,76.29
2018-06-22T20:48:17.842Z,76.31
2018-06-22T20:50:46.993Z,76.47
2018-06-22T20:53:15.803Z,76.27
2018-06-22T20:55:45.004Z,76.40
2018-06-22T20:58:13.888Z,76.54
2018-06-22T21:00:43.444Z,76.34
2018-06-22T21:03:12.616Z,76.66
2018-06-22T21:05:41.500Z,76.54
2018-06-22T21:08:11.223Z,76.25
2018-06-22T21:10:40.071Z,76.52
2018-06-22T21:13:09.353Z,76.55
2018-06-22T21:15:38.616Z,76.68
2018-06-22T21:18:08.019Z,76.84
2018-06-22T21:20:37.232Z,76.81
2018-06-22T21:23:06.420Z,76.74
2018-06-22T21:25:35.590Z,76.71
2018-06-22T21:28:09.419Z,77.07
2018-06-22T21:30:43.609Z,77.39
2018-06-22T21:33:17.673Z,77.42
2018-06-22T21:35:54.431Z,77.37
2018-06-22T21:38:36.629Z,77.92
2018-06-22T21:41:05.781Z,77.99
2018-06-22T21:43:35.222Z,77.68
2018-06-22T21:46:08.685Z,78.50
2018-06-22T21:48:37.674Z,78.37
2018-06-22T21:51:06.740Z,78.45
2018-06-22T21:53:35.956Z,78.90
2018-06-22T21:56:04.846Z,78.87
2018-06-22T21:58:34.298Z,78.73
2018-06-22T22:01:10.527Z,79.15
2018-06-22T22:03:40.382Z,79.17
2018-06-22T22:06:09.422Z,79.32
2018-06-22T22:08:38.516Z,79.63
2018-06-22T22:11:09.452Z,79.71
2018-06-22T22:13:40.108Z,79.84
2018-06-22T22:16:09.764Z,80.11
2018-06-22T22:18:38.968Z,80.23
2018-06-22T22:21:08.720Z,80.52
2018-06-22T22:23:38.103Z,80.52
2018-06-22T22:26:07.264Z,80.74
2018-06-22T22:28:36.271Z,80.97
2018-06-22T22:31:05.692Z,81.02
2018-06-22T22:33:35.366Z,81.47
2018-06-22T22:36:04.502Z,81.17
2018-06-22T22:38:33.845Z,81.22
2018-06-22T22:41:02.714Z,81.69
2018-06-22T22:43:31.629Z,81.88
2018-06-22T22:46:01.077Z,81.70
2018-06-22T22:48:30.543Z,81.91
2018-06-22T22:51:00.060Z,81.81
2018-06-22T22:53:30.176Z,81.84
2018-06-22T22:55:59.027Z,82.15
2018-06-22T22:58:28.024Z,82.68
2018-06-22T23:00:57.927Z,82.40
2018-06-22T23:03:27.073Z,82.68
2018-06-22T23:05:56.481Z,82.95
2018-06-22T23:08:25.942Z,83.17
2018-06-22T23:10:55.375Z,83.03
2018-06-22T23:13:24.323Z,83.29
2018-06-22T23:15:53.437Z,83.66
2018-06-22T23:18:22.244Z,83.49
2018-06-22T23:20:52.577Z,84.02
2018-06-22T23:23:31.583Z,84.06
2018-06-22T23:26:00.943Z,84.02
2018-06-22T23:28:30.326Z,83.97
2018-06-22T23:31:00.501Z,83.96
2018-06-22T23:33:30.006Z,84.46
2018-06-22T23:35:59.344Z,84.09
2018-06-22T23:38:28.505Z,84.47
2018-06-22T23:40:57.654Z,84.78
2018-06-22T23:43:27.083Z,84.44
2018-06-22T23:45:55.888Z,84.88
2018-06-22T23:48:24.747Z,84.78
2018-06-22T23:50:54.381Z,84.90
2018-06-22T23:53:23.645Z,85.37
2018-06-22T23:55:52.778Z,85.39
2018-06-22T23:58:22.215Z,85.11
